Time;durP1;ratioP1;P1;durP2;ratioP2;P2;SDS_P1;SDS_P2;PMS_P1;PMS_P2;Temp;Humidity;BMP_temperature;BMP_pressure;BME280_temperature;BME280_humidity;BME280_pressure;Samples;Min_cycle;Max_cycle;Signal;HPM_P1;HPM_P2
2022/03/09 00:01:20;;;;;;;;;3.60;2.60;;;;;0.95;49.44;100524.06;5098291;28;8965;-64
2022/03/09 00:03:47;;;;;;;;;4.00;4.00;;;;;0.97;48.98;100522.25;5113778;28;8820;-64
2022/03/09 00:06:15;;;;;;;;;4.80;3.60;;;;;0.94;49.36;100522.34;5117918;28;8924;-64
2022/03/09 00:08:43;;;;;;;;;8.60;8.60;;;;;0.93;48.78;100528.47;5118477;28;8828;-64
2022/03/09 00:11:11;;;;;;;;;4.00;3.80;;;;;0.90;49.08;100536.44;5118297;28;8839;-64
2022/03/09 00:13:39;;;;;;;;;9.40;7.40;;;;;0.86;48.92;100540.03;5100789;28;9460;-64
2022/03/09 00:16:06;;;;;;;;;3.00;3.00;;;;;0.83;49.23;100542.78;5097777;28;8833;-64
2022/03/09 00:18:35;;;;;;;;;7.00;5.60;;;;;0.78;48.99;100539.44;5097872;28;8850;-64
2022/03/09 00:21:02;;;;;;;;;6.20;4.60;;;;;0.75;49.25;100528.19;5097022;28;8949;-63
2022/03/09 00:23:30;;;;;;;;;6.00;6.00;;;;;0.73;49.30;100530.00;5112527;28;8818;-63
2022/03/09 00:25:58;;;;;;;;;6.20;6.20;;;;;0.73;49.20;100530.00;5117714;28;8862;-63
2022/03/09 00:28:26;;;;;;;;;4.40;4.00;;;;;0.74;49.75;100531.72;5118093;28;8962;-64
2022/03/09 00:30:58;;;;;;;;;4.00;4.00;;;;;0.75;49.58;100536.91;5117686;28;8828;-63
2022/03/09 00:33:25;;;;;;;;;7.40;7.00;;;;;0.80;49.37;100542.88;5102736;28;9795;-64
2022/03/09 00:35:53;;;;;;;;;9.80;9.00;;;;;0.79;49.97;100541.16;5097470;28;8849;-63
2022/03/09 00:38:21;;;;;;;;;11.80;11.60;;;;;0.75;49.34;100552.63;5097392;28;8968;-64
2022/03/09 00:40:50;;;;;;;;;7.60;6.60;;;;;0.69;49.80;100552.81;5097258;28;8822;-64
2022/03/09 00:43:18;;;;;;;;;8.60;7.40;;;;;0.63;49.73;100553.00;5110188;28;8808;-64
2022/03/09 00:45:46;;;;;;;;;4.00;3.60;;;;;0.56;50.04;100551.50;5117117;28;8823;-64
2022/03/09 00:48:14;;;;;;;;;7.00;6.40;;;;;0.53;50.12;100555.97;5117501;28;8847;-64
2022/03/09 00:50:42;;;;;;;;;6.60;6.00;;;;;0.48;50.17;100553.44;5117348;28;8910;-63
2022/03/09 00:53:09;;;;;;;;;6.40;6.40;;;;;0.47;50.59;100556.13;5104503;28;9504;-64
2022/03/09 00:55:38;;;;;;;;;1.00;0.00;;;;;0.45;50.25;100558.78;5097416;28;8826;-64
2022/03/09 00:58:05;;;;;;;;;5.20;5.20;;;;;0.43;50.86;100560.59;5096594;28;8833;-66
2022/03/09 01:00:33;;;;;;;;;10.80;9.80;;;;;0.40;50.32;100565.91;5097437;28;8845;-64
2022/03/09 01:03:01;;;;;;;;;7.00;6.80;;;;;0.37;50.54;100554.66;5106744;28;8963;-65
2022/03/09 01:05:29;;;;;;;;;6.40;6.40;;;;;0.33;50.69;100551.28;5116468;28;8836;-66
2022/03/09 01:07:56;;;;;;;;;7.40;6.00;;;;;0.33;50.27;100553.03;5116972;28;8974;-63
2022/03/09 01:10:24;;;;;;;;;6.20;5.20;;;;;0.32;50.86;100561.81;5117044;28;8841;-63
2022/03/09 01:12:52;;;;;;;;;6.00;6.00;;;;;0.33;50.24;100559.13;5107399;28;8818;-64
2022/03/09 01:15:20;;;;;;;;;4.20;3.80;;;;;0.34;50.36;100566.09;5096316;28;8822;-67
2022/03/09 01:17:48;;;;;;;;;5.20;3.60;;;;;0.38;50.65;100559.03;5096837;28;8833;-63
2022/03/09 01:20:17;;;;;;;;;4.00;4.00;;;;;0.40;50.43;100570.31;5096955;28;8842;-64
2022/03/09 01:22:45;;;;;;;;;3.80;3.80;;;;;0.42;50.37;100563.25;5103712;28;9508;-64
2022/03/09 01:25:13;;;;;;;;;4.40;4.40;;;;;0.44;49.99;100564.94;5116469;28;8848;-64
2022/03/09 01:27:40;;;;;;;;;3.40;3.40;;;;;0.47;50.32;100567.44;5116556;28;8946;-63
2022/03/09 01:30:08;;;;;;;;;4.00;3.20;;;;;0.47;50.35;100562.22;5117181;28;9466;-64
2022/03/09 01:32:36;;;;;;;;;5.20;3.80;;;;;0.47;50.78;100567.44;5109258;28;8914;-63
2022/03/09 01:35:04;;;;;;;;;6.80;6.40;;;;;0.43;50.57;100562.34;5096285;28;8918;-64
2022/03/09 01:37:32;;;;;;;;;9.40;9.40;;;;;0.43;50.85;100557.97;5096108;28;8968;-64
2022/03/09 01:39:59;;;;;;;;;11.80;9.80;;;;;0.39;50.80;100558.97;5096259;28;8852;-64
2022/03/09 01:42:27;;;;;;;;;5.20;4.80;;;;;0.36;51.18;100553.81;5101266;28;8967;-65
2022/03/09 01:44:55;;;;;;;;;4.20;4.20;;;;;0.35;51.13;100552.09;5115900;28;8824;-64
2022/03/09 01:47:23;;;;;;;;;5.20;4.00;;;;;0.35;51.14;100556.47;5116626;28;8839;-64
2022/03/09 01:49:53;;;;;;;;;7.00;7.00;;;;;0.35;50.82;100559.09;5116503;28;8853;-64
2022/03/09 01:52:21;;;;;;;;;5.20;3.60;;;;;0.36;50.62;100548.59;5111582;28;8842;-65
2022/03/09 01:54:49;;;;;;;;;3.80;3.80;;;;;0.39;50.65;100552.88;5096512;28;8854;-64
2022/03/09 01:57:16;;;;;;;;;4.80;4.80;;;;;0.42;51.08;100552.78;5096140;28;8826;-64
2022/03/09 01:59:45;;;;;;;;;6.40;6.00;;;;;0.42;50.98;100542.31;5094531;28;8846;-67
2022/03/09 02:02:12;;;;;;;;;3.80;3.60;;;;;0.44;51.01;100549.22;5097548;28;8838;-64
2022/03/09 02:04:40;;;;;;;;;7.00;6.80;;;;;0.45;50.33;100548.31;5116040;28;9531;-64
2022/03/09 02:07:08;;;;;;;;;4.40;4.40;;;;;0.43;50.58;100542.25;5116055;28;8838;-64
2022/03/09 02:09:44;;;;;;;;;4.00;3.60;;;;;0.40;51.05;100550.19;5116262;28;8889;-65
2022/03/09 02:12:12;;;;;;;;;3.00;3.00;;;;;0.38;50.44;100546.78;5112807;28;8843;-65
2022/03/09 02:14:40;;;;;;;;;3.00;3.00;;;;;0.37;50.79;100560.78;5094627;28;8848;-64
2022/03/09 02:17:08;;;;;;;;;3.80;3.20;;;;;0.35;50.75;100553.84;5094830;28;8830;-64
2022/03/09 02:19:36;;;;;;;;;3.60;3.00;;;;;0.34;51.04;100554.75;5095432;28;8838;-64
2022/03/09 02:22:03;;;;;;;;;6.40;6.00;;;;;0.32;50.89;100554.78;5095505;28;8876;-64
2022/03/09 02:24:31;;;;;;;;;6.00;6.00;;;;;0.32;50.86;100556.56;5115197;28;8820;-64
2022/03/09 02:26:59;;;;;;;;;3.60;3.60;;;;;0.32;50.89;100546.94;5115662;28;8844;-64
2022/03/09 02:29:28;;;;;;;;;7.40;6.40;;;;;0.34;51.05;100552.16;5115554;28;8835;-64
2022/03/09 02:31:55;;;;;;;;;4.40;4.40;;;;;0.34;50.92;100539.06;5114920;28;8968;-65
2022/03/09 02:34:23;;;;;;;;;6.00;5.60;;;;;0.36;50.88;100547.72;5095571;28;8850;-64
2022/03/09 02:36:51;;;;;;;;;3.60;3.60;;;;;0.37;50.83;100545.06;5094880;28;8827;-64
2022/03/09 02:39:18;;;;;;;;;7.20;5.20;;;;;0.39;50.42;100542.41;5094941;28;8856;-67
2022/03/09 02:41:46;;;;;;;;;6.20;5.00;;;;;0.39;51.02;100538.00;5095773;28;8826;-64
2022/03/09 02:44:15;;;;;;;;;0.60;0.00;;;;;0.40;50.74;100539.72;5113077;28;8924;-64
2022/03/09 02:46:43;;;;;;;;;3.80;3.00;;;;;0.42;50.80;100539.69;5115168;28;8824;-64
2022/03/09 02:49:11;;;;;;;;;4.00;4.00;;;;;0.45;50.40;100548.31;5115278;28;8840;-64
2022/03/09 02:51:38;;;;;;;;;5.20;4.40;;;;;0.46;50.78;100544.78;5114148;28;9502;-64
2022/03/09 02:54:06;;;;;;;;;4.80;4.80;;;;;0.43;51.13;100551.88;5097432;28;8830;-64
2022/03/09 02:56:34;;;;;;;;;7.00;6.40;;;;;0.37;51.01;100545.06;5094824;28;8850;-64
2022/03/09 02:59:02;;;;;;;;;6.80;5.80;;;;;0.32;50.96;100549.56;5095234;28;8814;-64
2022/03/09 03:01:30;;;;;;;;;6.00;6.00;;;;;0.28;50.93;100541.84;5108632;28;8846;-64
2022/03/09 03:03:57;;;;;;;;;1.00;1.00;;;;;0.27;51.15;100542.75;5116327;28;8831;-65
2022/03/09 03:06:25;;;;;;;;;7.00;6.00;;;;;0.28;51.24;100534.84;5114903;28;8840;-64
2022/03/09 03:08:53;;;;;;;;;5.80;5.80;;;;;0.31;51.12;100539.16;5115408;28;9486;-64
2022/03/09 03:11:21;;;;;;;;;6.00;6.00;;;;;0.32;50.83;100528.59;5102254;28;8830;-64
2022/03/09 03:13:50;;;;;;;;;3.80;3.40;;;;;0.32;50.92;100539.09;5094628;28;8833;-64
2022/03/09 03:16:17;;;;;;;;;4.00;4.00;;;;;0.30;51.08;100543.50;5095185;28;8924;-64
2022/03/09 03:18:47;;;;;;;;;6.20;6.00;;;;;0.28;50.61;100545.31;5094769;28;8818;-64
2022/03/09 03:21:15;;;;;;;;;4.60;3.80;;;;;0.25;51.12;100548.00;5105728;28;9564;-64
2022/03/09 03:23:42;;;;;;;;;4.00;4.00;;;;;0.22;51.06;100542.88;5114870;28;8835;-65
2022/03/09 03:26:10;;;;;;;;;3.80;3.80;;;;;0.21;51.70;100538.53;5115583;28;8832;-64
2022/03/09 03:28:38;;;;;;;;;3.40;3.40;;;;;0.24;51.40;100540.22;5118488;28;8866;-67
2022/03/09 03:31:06;;;;;;;;;3.40;3.40;;;;;0.24;50.99;100535.81;5108669;28;8822;-64
2022/03/09 03:33:33;;;;;;;;;4.80;4.40;;;;;0.27;51.45;100541.00;5098330;28;8859;-64
2022/03/09 03:36:01;;;;;;;;;3.00;2.60;;;;;0.27;51.36;100541.00;5098795;28;8838;-64
2022/03/09 03:38:30;;;;;;;;;5.20;4.00;;;;;0.26;50.88;100544.53;5098189;28;8852;-64
2022/03/09 03:40:57;;;;;;;;;3.00;3.00;;;;;0.22;51.13;100540.25;5098883;28;8866;-65
2022/03/09 03:43:25;;;;;;;;;6.60;5.20;;;;;0.18;50.93;100537.78;5099211;28;8829;-64
2022/03/09 03:45:54;;;;;;;;;5.80;3.00;;;;;0.14;51.45;100534.38;5098203;28;8842;-65
2022/03/09 03:48:22;;;;;;;;;2.60;1.80;;;;;0.08;51.60;100537.16;5098492;28;9464;-65
2022/03/09 03:50:50;;;;;;;;;6.40;5.20;;;;;0.04;51.04;100534.69;5104631;28;8832;-64
2022/03/09 03:53:17;;;;;;;;;4.00;4.00;;;;;0.00;51.40;100533.91;5118266;28;8974;-63
2022/03/09 03:55:45;;;;;;;;;4.00;4.00;;;;;-0.06;51.82;100544.53;5119437;28;8842;-64
2022/03/09 03:58:13;;;;;;;;;5.20;4.00;;;;;-0.10;51.99;100543.81;5117962;28;8846;-63
2022/03/09 04:00:41;;;;;;;;;3.00;3.00;;;;;-0.12;51.92;100549.94;5112319;28;8826;-64
2022/03/09 04:03:08;;;;;;;;;3.60;3.60;;;;;-0.16;51.38;100541.38;5097996;28;8834;-64
2022/03/09 04:05:36;;;;;;;;;4.40;4.40;;;;;-0.23;51.67;100540.66;5098485;28;8836;-65
2022/03/09 04:08:04;;;;;;;;;4.00;3.60;;;;;-0.30;52.24;100544.34;5097147;28;8933;-63
2022/03/09 04:10:32;;;;;;;;;0.60;0.60;;;;;-0.36;51.96;100535.78;5101825;28;8812;-63
2022/03/09 04:13:04;;;;;;;;;5.60;5.60;;;;;-0.43;52.41;100532.50;5105149;28;8856;-63
2022/03/09 04:15:32;;;;;;;;;2.60;2.60;;;;;-0.47;52.30;100530.84;5097541;28;8834;-64
2022/03/09 04:17:59;;;;;;;;;3.60;3.60;;;;;-0.53;52.65;100530.16;5096547;28;8830;-64
2022/03/09 04:20:28;;;;;;;;;2.20;1.00;;;;;-0.60;52.61;100526.84;5097478;28;8841;-64
2022/03/09 04:22:56;;;;;;;;;2.80;2.20;;;;;-0.65;52.44;100531.31;5107948;28;8836;-64
2022/03/09 04:25:26;;;;;;;;;1.40;1.40;;;;;-0.67;52.89;100532.25;5117753;28;8844;-65
2022/03/09 04:27:54;;;;;;;;;4.60;3.80;;;;;-0.71;52.58;100539.31;5118213;28;8832;-64
2022/03/09 04:30:23;;;;;;;;;7.60;4.00;;;;;-0.73;52.86;100540.25;5117874;28;8836;-64
2022/03/09 04:32:50;;;;;;;;;3.80;3.80;;;;;-0.77;52.69;100538.63;5107173;28;8842;-65
2022/03/09 04:35:18;;;;;;;;;4.00;4.00;;;;;-0.78;52.92;100534.28;5097626;28;8834;-63
2022/03/09 04:37:46;;;;;;;;;1.00;1.00;;;;;-0.80;52.63;100538.66;5097287;28;8848;-64
2022/03/09 04:40:16;;;;;;;;;0.80;0.60;;;;;-0.83;52.74;100530.91;5097498;28;8837;-64
2022/03/09 04:42:44;;;;;;;;;3.80;3.00;;;;;-0.84;52.53;100539.66;5106289;28;9493;-64
2022/03/09 04:45:11;;;;;;;;;5.60;3.00;;;;;-0.87;52.54;100531.88;5117164;28;8820;-64
2022/03/09 04:47:39;;;;;;;;;3.80;3.00;;;;;-0.88;53.03;100538.00;5118081;28;8920;-64
2022/03/09 04:50:07;;;;;;;;;3.00;3.00;;;;;-0.89;52.88;100538.91;5117617;28;8824;-64
2022/03/09 04:52:35;;;;;;;;;3.40;3.40;;;;;-0.89;53.11;100531.06;5109159;28;8893;-64
2022/03/09 04:55:02;;;;;;;;;3.00;3.00;;;;;-0.87;52.95;100537.09;5097016;28;8841;-64
2022/03/09 04:57:30;;;;;;;;;4.00;3.00;;;;;-0.87;52.79;100531.88;5097500;28;8838;-63
2022/03/09 04:59:58;;;;;;;;;3.00;3.00;;;;;-0.89;52.59;100531.06;5096792;28;9510;-65
2022/03/09 05:02:26;;;;;;;;;3.40;3.40;;;;;-0.92;52.95;100539.81;5101949;28;8916;-66
2022/03/09 05:04:54;;;;;;;;;1.80;1.80;;;;;-0.93;53.00;100535.50;5117055;28;9671;-64
2022/03/09 05:07:21;;;;;;;;;6.00;4.00;;;;;-0.95;53.04;100537.31;5117253;28;8846;-64
2022/03/09 05:09:49;;;;;;;;;4.40;4.40;;;;;-0.97;53.49;100536.47;5117464;28;8820;-64
2022/03/09 05:12:17;;;;;;;;;0.00;0.00;;;;;-0.97;53.44;100533.00;5112192;28;8830;-64
2022/03/09 05:14:45;;;;;;;;;5.20;5.20;;;;;-0.99;53.05;100545.25;5096123;28;8833;-64
2022/03/09 05:17:12;;;;;;;;;3.60;3.20;;;;;-1.00;53.00;100538.31;5096679;28;8977;-63
2022/03/09 05:19:40;;;;;;;;;1.80;1.80;;;;;-1.01;53.03;100542.66;5096371;28;8937;-64
2022/03/09 05:22:08;;;;;;;;;4.40;2.60;;;;;-1.02;53.09;100550.53;5098263;28;8875;-63
2022/03/09 05:24:47;;;;;;;;;3.60;3.60;;;;;-1.03;53.06;100549.69;5116217;28;8824;-64
2022/03/09 05:27:15;;;;;;;;;2.20;2.20;;;;;-1.02;53.28;100560.97;5116592;28;8848;-64
2022/03/09 05:29:43;;;;;;;;;3.80;3.80;;;;;-1.02;53.14;100555.75;5116033;28;8953;-63
2022/03/09 05:32:11;;;;;;;;;4.00;4.00;;;;;-1.02;53.21;100553.13;5112515;28;8844;-64
2022/03/09 05:34:39;;;;;;;;;3.00;3.00;;;;;-1.02;52.91;100556.63;5095318;28;8960;-63
2022/03/09 05:37:06;;;;;;;;;2.60;2.60;;;;;-1.01;52.99;100557.50;5096063;28;8837;-67
2022/03/09 05:39:34;;;;;;;;;0.00;0.00;;;;;-1.01;53.06;100563.56;5095695;28;8838;-64
2022/03/09 05:42:02;;;;;;;;;4.40;4.40;;;;;-1.02;52.89;100561.84;5097244;28;8841;-63
2022/03/09 05:44:30;;;;;;;;;3.80;3.80;;;;;-1.00;53.40;100569.66;5116768;28;8982;-65
2022/03/09 05:46:57;;;;;;;;;3.20;3.20;;;;;-0.98;52.41;100565.25;5115753;28;8827;-63
2022/03/09 05:49:26;;;;;;;;;5.20;4.00;;;;;-0.94;53.02;100577.34;5112449;28;8835;-63
2022/03/09 05:51:53;;;;;;;;;3.20;3.20;;;;;-0.87;52.65;100573.69;5094569;28;8866;-65
2022/03/09 05:54:21;;;;;;;;;3.40;3.00;;;;;-0.77;53.14;100575.22;5094408;28;8817;-64
2022/03/09 05:56:49;;;;;;;;;3.80;3.00;;;;;-0.67;52.42;100580.19;5096010;28;8810;-66
2022/03/09 05:59:18;;;;;;;;;1.00;0.60;;;;;-0.62;52.26;100583.53;5095506;28;8834;-63
2022/03/09 06:01:46;;;;;;;;;1.00;1.00;;;;;-0.55;52.27;100586.88;5095534;28;8846;-64
2022/03/09 06:04:14;;;;;;;;;3.00;3.00;;;;;-0.54;52.07;100591.19;5093884;28;8837;-64
2022/03/09 06:06:41;;;;;;;;;1.00;1.00;;;;;-0.52;51.78;100594.63;5092667;28;8849;-63
2022/03/09 06:09:09;;;;;;;;;3.00;2.20;;;;;-0.47;52.36;100600.59;5091228;28;8945;-64
2022/03/09 06:11:37;;;;;;;;;1.00;1.00;;;;;-0.44;52.14;100595.28;5090771;28;8837;-64
2022/03/09 06:14:05;;;;;;;;;1.00;1.00;;;;;-0.42;52.28;100596.97;5091231;28;8832;-63
2022/03/09 06:16:33;;;;;;;;;2.20;1.00;;;;;-0.43;52.47;100603.09;5091154;28;8853;-64
2022/03/09 06:19:01;;;;;;;;;1.00;1.00;;;;;-0.46;52.20;100608.38;5091927;28;8845;-63
2022/03/09 06:21:28;;;;;;;;;1.80;1.00;;;;;-0.51;52.43;100596.34;5091363;28;8870;-63
2022/03/09 06:23:56;;;;;;;;;2.60;2.60;;;;;-0.56;52.67;100601.69;5090915;28;8975;-64
2022/03/09 06:26:24;;;;;;;;;4.00;3.20;;;;;-0.58;52.47;100605.22;5092614;28;8861;-63
2022/03/09 06:28:54;;;;;;;;;3.00;3.00;;;;;-0.59;52.45;100600.91;5091281;28;8825;-63
2022/03/09 06:31:21;;;;;;;;;1.80;1.80;;;;;-0.56;52.44;100600.81;5090777;28;8834;-64
2022/03/09 06:33:49;;;;;;;;;4.80;4.40;;;;;-0.52;52.14;100605.94;5090885;28;8964;-64
2022/03/09 06:36:17;;;;;;;;;4.00;4.00;;;;;-0.46;52.27;100604.94;5091049;28;8832;-63
2022/03/09 06:38:45;;;;;;;;;3.20;2.20;;;;;-0.39;52.05;100602.13;5091484;28;8830;-63
2022/03/09 06:41:12;;;;;;;;;6.00;6.00;;;;;-0.33;52.05;100601.97;5090938;28;8830;-63
2022/03/09 06:43:40;;;;;;;;;5.60;4.60;;;;;-0.24;51.79;100593.03;5091388;28;8841;-64
2022/03/09 06:46:08;;;;;;;;;2.60;2.60;;;;;-0.15;51.87;100595.41;5090387;28;8880;-64
2022/03/09 06:48:36;;;;;;;;;3.20;3.20;;;;;-0.08;51.56;100588.22;5090649;28;8829;-64
2022/03/09 06:51:05;;;;;;;;;3.00;3.00;;;;;0.01;51.26;100592.34;5089907;28;8874;-64
2022/03/09 06:53:37;;;;;;;;;3.60;3.60;;;;;0.14;51.82;100594.59;5088008;28;8838;-64
2022/03/09 06:56:05;;;;;;;;;3.00;1.80;;;;;0.23;51.07;100589.09;5089020;28;8838;-63
2022/03/09 06:58:33;;;;;;;;;1.80;1.80;;;;;0.36;50.63;100600.09;5088116;28;8865;-64
2022/03/09 07:01:01;;;;;;;;;5.60;3.00;;;;;0.49;51.03;100589.25;5088512;28;8875;-63
2022/03/09 07:03:30;;;;;;;;;4.00;4.00;;;;;0.61;50.64;100596.72;5088904;28;8838;-63
2022/03/09 07:05:58;;;;;;;;;6.40;6.40;;;;;0.72;50.48;100601.66;5089237;28;8880;-63
2022/03/09 07:08:27;;;;;;;;;2.60;2.60;;;;;0.78;51.10;100604.94;5088766;28;8834;-64
2022/03/09 07:10:55;;;;;;;;;6.80;5.60;;;;;0.80;50.37;100603.16;5088417;28;8852;-63
2022/03/09 07:13:23;;;;;;;;;3.20;3.20;;;;;0.83;50.31;100605.69;5089256;28;8838;-64
2022/03/09 07:15:51;;;;;;;;;3.00;1.00;;;;;0.85;49.95;100610.88;5090366;28;8845;-63
2022/03/09 07:18:18;;;;;;;;;6.00;6.00;;;;;0.91;50.70;100603.69;5089903;28;8858;-63
2022/03/09 07:20:46;;;;;;;;;4.00;3.00;;;;;0.97;50.17;100597.38;5090306;28;8838;-63
2022/03/09 07:23:14;;;;;;;;;3.60;3.00;;;;;1.06;50.21;100597.97;5091072;28;8837;-63
2022/03/09 07:25:43;;;;;;;;;4.00;4.00;;;;;1.16;50.28;100601.19;5074140;28;8867;-63
2022/03/09 07:28:11;;;;;;;;;5.60;4.40;;;;;1.35;49.55;100594.41;5071189;28;8840;-63
2022/03/09 07:30:39;;;;;;;;;4.00;1.80;;;;;1.60;49.61;100604.06;5069035;28;8856;-64
2022/03/09 07:33:12;;;;;;;;;3.40;3.40;;;;;1.85;49.29;100596.25;5069718;28;9213;-64
2022/03/09 07:35:40;;;;;;;;;3.00;3.00;;;;;2.15;48.68;100597.81;5070204;28;8844;-64
2022/03/09 07:38:10;;;;;;;;;1.00;1.00;;;;;2.50;48.37;100589.53;5069881;28;8973;-64
2022/03/09 07:40:38;;;;;;;;;6.00;6.00;;;;;3.01;48.33;100583.16;5070698;28;8885;-64
2022/03/09 07:43:06;;;;;;;;;3.00;3.00;;;;;3.61;47.37;100579.84;5071830;28;8921;-64
2022/03/09 07:45:33;;;;;;;;;5.20;3.80;;;;;4.24;46.80;100570.06;5070706;28;8836;-64
2022/03/09 07:48:01;;;;;;;;;1.00;1.00;;;;;4.91;46.53;100572.22;5071094;28;8966;-64
2022/03/09 07:50:29;;;;;;;;;6.40;4.40;;;;;5.56;45.53;100563.78;5070468;28;8844;-65
2022/03/09 07:52:57;;;;;;;;;3.60;3.60;;;;;6.11;45.07;100568.00;5070076;28;8882;-64
2022/03/09 07:55:25;;;;;;;;;4.00;4.00;;;;;6.52;44.97;100564.06;5070362;28;8921;-65
2022/03/09 07:57:57;;;;;;;;;3.80;3.40;;;;;6.80;44.23;100566.94;5069702;28;8832;-64
2022/03/09 08:00:25;;;;;;;;;6.40;6.40;;;;;6.97;43.69;100566.88;5069096;28;8840;-65
2022/03/09 08:02:53;;;;;;;;;2.60;1.80;;;;;7.13;43.86;100570.38;5069755;28;8887;-64
2022/03/09 08:05:43;;;;;;;;;4.00;4.00;;;;;7.35;43.44;100571.75;5070429;28;8864;-65
2022/03/09 08:08:10;;;;;;;;;6.00;5.60;;;;;7.59;43.04;100572.97;5069221;28;9546;-64
2022/03/09 08:10:38;;;;;;;;;5.60;5.60;;;;;7.83;42.85;100584.84;5069429;28;8828;-65
2022/03/09 08:13:08;;;;;;;;;6.20;4.00;;;;;8.06;42.59;100582.53;5070667;28;9502;-65
2022/03/09 08:15:37;;;;;;;;;4.80;4.00;;;;;8.30;42.49;100583.75;5073546;28;8832;-65
2022/03/09 08:18:04;;;;;;;;;5.20;3.60;;;;;8.44;41.90;100594.41;5071897;28;9615;-65
2022/03/09 08:20:32;;;;;;;;;6.60;6.60;;;;;8.50;41.59;100591.38;5069178;28;8897;-64
2022/03/09 08:23:00;;;;;;;;;6.20;4.60;;;;;8.54;41.35;100595.56;5070802;28;8968;-65
2022/03/09 08:25:28;;;;;;;;;6.00;5.60;;;;;8.55;41.37;100584.00;5085755;28;8874;-65
2022/03/09 08:27:57;;;;;;;;;5.20;4.40;;;;;8.59;41.30;100588.16;5092822;28;8860;-64
2022/03/09 08:30:25;;;;;;;;;7.00;6.80;;;;;8.62;41.25;100582.69;5092948;28;8841;-65
2022/03/09 08:32:53;;;;;;;;;5.20;4.80;;;;;8.65;40.96;100593.09;5092213;28;8849;-64
2022/03/09 08:35:21;;;;;;;;;9.00;7.00;;;;;8.66;40.76;100592.13;5092829;28;8914;-64
2022/03/09 08:37:48;;;;;;;;;6.40;4.00;;;;;8.67;40.72;100590.34;5092210;28;8884;-64
2022/03/09 08:40:16;;;;;;;;;5.20;4.00;;;;;8.67;40.47;100588.53;5091837;28;8850;-64
2022/03/09 08:42:44;;;;;;;;;9.80;8.60;;;;;8.71;40.29;100590.06;5091808;28;8932;-64
2022/03/09 08:45:12;;;;;;;;;3.00;1.00;;;;;8.91;40.01;100584.38;5092675;28;8836;-64
2022/03/09 08:47:40;;;;;;;;;6.00;5.20;;;;;9.29;39.75;100574.84;5091622;28;8822;-64
2022/03/09 08:50:08;;;;;;;;;6.00;6.00;;;;;9.66;39.13;100576.78;5091044;28;8849;-64
2022/03/09 08:52:56;;;;;;;;;6.20;6.20;;;;;10.15;38.74;100577.06;5091267;28;9012;-64
2022/03/09 08:55:24;;;;;;;;;4.00;4.00;;;;;10.50;38.13;100581.69;5091357;28;8852;-64
2022/03/09 08:57:53;;;;;;;;;7.00;7.00;;;;;10.76;38.20;100564.75;5090891;28;8838;-65
2022/03/09 09:00:35;;;;;;;;;7.60;6.80;;;;;11.06;37.65;100559.91;5089494;28;9175;-65
2022/03/09 09:03:03;;;;;;;;;9.50;9.00;;;;;11.16;37.43;100558.25;5090976;28;8842;-65
2022/03/09 09:05:31;;;;;;;;;6.00;4.50;;;;;11.18;37.41;100560.81;5090450;28;8892;-65
2022/03/09 09:07:59;;;;;;;;;9.00;7.00;;;;;11.17;37.38;100560.00;5090862;28;8853;-65
2022/03/09 09:10:33;;;;;;;;;7.00;6.75;;;;;11.17;37.13;100560.00;5090134;28;8864;-65
2022/03/09 09:13:01;;;;;;;;;5.00;5.00;;;;;11.17;37.01;100564.47;5090724;28;8988;-65
2022/03/09 09:15:29;;;;;;;;;6.00;4.50;;;;;11.17;36.95;100568.00;5090463;28;8842;-65
2022/03/09 09:17:57;;;;;;;;;3.00;1.50;;;;;11.10;37.37;100561.41;5092013;28;8841;-64
2022/03/09 09:20:45;;;;;;;;;4.00;4.00;;;;;11.03;36.85;100562.78;5090431;28;9550;-64
2022/03/09 09:23:12;;;;;;;;;6.25;4.50;;;;;11.01;37.26;100558.53;5091645;28;8838;-65
2022/03/09 09:25:43;;;;;;;;;6.00;6.00;;;;;10.99;36.64;100560.47;5090725;28;8837;-64
2022/03/09 09:28:11;;;;;;;;;5.00;5.00;;;;;10.98;36.69;100556.06;5091284;28;8830;-64
2022/03/09 09:30:39;;;;;;;;;5.75;5.50;;;;;10.98;37.11;100564.06;5090586;28;8849;-65
2022/03/09 09:33:06;;;;;;;;;6.00;6.00;;;;;10.98;36.54;100564.91;5088589;28;9558;-64
2022/03/09 09:35:34;;;;;;;;;2.75;1.50;;;;;11.03;37.00;100567.25;5088827;28;8841;-66
2022/03/09 09:38:08;;;;;;;;;6.00;6.00;;;;;11.02;36.73;100565.56;5090279;28;9239;-65
2022/03/09 09:40:36;;;;;;;;;12.75;10.50;;;;;10.99;36.01;100561.28;5089950;28;9523;-65
2022/03/09 09:43:07;;;;;;;;;1.00;1.00;;;;;10.97;35.94;100563.22;5090128;28;8845;-64
2022/03/09 09:45:35;;;;;;;;;7.50;6.00;;;;;10.95;35.89;100562.50;5089957;28;8833;-64
2022/03/09 09:48:03;;;;;;;;;6.00;6.00;;;;;10.97;35.43;100563.22;5090501;28;8826;-65
2022/03/09 09:50:31;;;;;;;;;6.00;6.00;;;;;11.02;35.74;100561.09;5090369;28;8976;-64
2022/03/09 09:52:59;;;;;;;;;5.50;5.50;;;;;11.12;35.48;100558.59;5090315;28;8858;-65
2022/03/09 09:55:26;;;;;;;;;2.00;0.50;;;;;11.21;35.24;100560.63;5090170;28;9553;-65
2022/03/09 09:57:55;;;;;;;;;9.00;6.50;;;;;11.28;35.10;100561.84;5090643;28;8848;-65
2022/03/09 10:00:22;;;;;;;;;6.00;5.50;;;;;11.35;34.57;100566.66;5091381;28;9016;-64
2022/03/09 10:02:50;;;;;;;;;3.00;1.00;;;;;11.49;34.37;100560.28;5091541;28;8826;-64
2022/03/09 10:05:19;;;;;;;;;7.00;7.00;;;;;11.70;34.06;100554.28;5091119;28;8838;-64
2022/03/09 10:07:47;;;;;;;;;6.00;6.00;;;;;11.95;33.66;100551.47;5091784;28;9515;-65
2022/03/09 10:10:15;;;;;;;;;7.00;6.00;;;;;12.31;33.68;100556.69;5091081;28;8872;-64
2022/03/09 10:12:43;;;;;;;;;7.75;7.75;;;;;12.88;33.22;100542.28;5090678;28;8837;-64
2022/03/09 10:15:10;;;;;;;;;3.75;3.75;;;;;13.70;31.87;100544.47;5090017;28;8850;-65
2022/03/09 10:17:38;;;;;;;;;6.00;6.00;;;;;14.76;30.68;100539.75;5089559;28;8865;-66
2022/03/09 10:20:06;;;;;;;;;8.00;8.00;;;;;15.78;29.82;100535.84;5091033;28;8865;-65
2022/03/09 10:22:33;;;;;;;;;1.00;1.00;;;;;16.69;29.15;100532.50;5090141;28;8849;-64
2022/03/09 10:25:22;;;;;;;;;3.75;3.00;;;;;17.71;28.16;100535.84;5083693;28;8877;-64
2022/03/09 10:27:51;;;;;;;;;6.00;6.00;;;;;18.55;28.01;100532.56;5090438;28;8838;-65
2022/03/09 10:30:19;;;;;;;;;8.50;8.00;;;;;19.29;26.41;100534.53;5090242;28;8840;-65
2022/03/09 10:32:47;;;;;;;;;4.50;4.00;;;;;19.77;26.31;100533.81;5090096;28;9639;-65
2022/03/09 10:35:15;;;;;;;;;5.50;5.00;;;;;20.18;26.28;100533.72;5089252;28;8980;-64
2022/03/09 10:37:43;;;;;;;;;9.00;7.00;;;;;20.59;25.83;100532.69;5087590;28;8872;-65
2022/03/09 10:40:16;;;;;;;;;9.60;8.20;;;;;20.93;25.52;100533.31;5090324;28;9001;-65
2022/03/09 10:42:43;;;;;;;;;7.60;6.80;;;;;21.34;25.35;100524.88;5089622;28;8837;-64
2022/03/09 10:45:11;;;;;;;;;5.60;5.60;;;;;21.95;24.80;100532.19;5089388;28;8830;-65
2022/03/09 10:47:39;;;;;;;;;6.00;6.00;;;;;22.64;24.16;100532.81;5089681;28;8826;-65
2022/03/09 10:50:07;;;;;;;;;2.60;2.60;;;;;23.11;23.85;100527.03;5089672;28;8919;-65
2022/03/09 10:52:35;;;;;;;;;7.60;7.60;;;;;23.73;23.75;100522.84;5088799;28;8866;-65
2022/03/09 10:55:03;;;;;;;;;9.20;9.00;;;;;24.15;23.31;100522.91;5089182;28;8854;-65
2022/03/09 10:57:31;;;;;;;;;5.40;4.40;;;;;24.47;23.28;100519.63;5090116;28;8842;-64
2022/03/09 11:00:00;;;;;;;;;8.00;8.00;;;;;24.80;23.21;100520.78;5090000;28;8931;-66
2022/03/09 11:02:30;;;;;;;;;11.80;10.40;;;;;25.20;22.73;100523.56;5088655;28;9581;-65
2022/03/09 11:04:58;;;;;;;;;9.00;8.40;;;;;25.49;22.85;100514.28;5088485;28;8842;-63
2022/03/09 11:07:26;;;;;;;;;10.00;9.40;;;;;25.58;22.36;100517.47;5086891;28;8952;-63
2022/03/09 11:09:54;;;;;;;;;6.60;5.80;;;;;25.58;23.04;100516.63;5086431;28;8852;-63
2022/03/09 11:12:22;;;;;;;;;4.60;4.60;;;;;25.84;22.87;100506.63;5085597;28;8885;-63
2022/03/09 11:14:49;;;;;;;;;10.40;9.20;;;;;25.82;22.45;100503.25;5085019;28;8849;-63
2022/03/09 11:17:17;;;;;;;;;11.60;10.00;;;;;25.79;22.67;100502.81;5088105;28;8842;-66
2022/03/09 11:19:45;;;;;;;;;8.40;8.00;;;;;25.84;22.56;100500.31;5089684;28;8830;-65
2022/03/09 11:22:13;;;;;;;;;6.80;6.80;;;;;25.87;22.99;100497.16;5088094;28;9544;-64
2022/03/09 11:24:43;;;;;;;;;7.00;7.00;;;;;25.93;22.80;100493.66;5087115;28;9554;-65
2022/03/09 11:27:13;;;;;;;;;7.00;6.60;;;;;25.92;23.26;100487.38;5088015;28;8874;-64
2022/03/09 11:29:42;;;;;;;;;9.00;7.00;;;;;26.00;22.84;100486.31;5087491;28;8832;-65
2022/03/09 11:32:10;;;;;;;;;7.20;6.80;;;;;25.82;23.05;100486.88;5088627;28;8861;-65
2022/03/09 11:34:39;;;;;;;;;9.20;6.60;;;;;25.94;22.67;100484.41;5086905;28;9508;-65
2022/03/09 11:37:06;;;;;;;;;4.80;4.20;;;;;26.06;22.43;100486.34;5087528;28;8850;-65
2022/03/09 11:39:34;;;;;;;;;9.00;9.00;;;;;26.07;22.76;100479.81;5086901;28;8837;-65
2022/03/09 11:42:02;;;;;;;;;3.20;1.60;;;;;26.26;22.40;100481.72;5086841;28;8834;-63